Hlavní strana
METAR-TAF:

METAR-TAF

Letiště :

Vardø, Norsko

zeměpisná šířka: 70-21N, zeměpisná délka: 031-03E, výška: 12 m

Aktuální stav počasí

Zpráva byla vytvořena před 7 hodinami a 11 minutami, v 21:20 UTC
Jižní vítr 18 kt
Teplota 3°C
Vlhkost vzduchu 60%
Tlak 1012 hPa
Viditelnost 10 km a více
Skoro jasno ve výšce 3800 ft
Oblačno až skoro zataženo ve výšce 4700 ft

METAR: ENSS 252120Z 18018KT 9999 FEW038 BKN047 03/M04 Q1012 RMK WIND 500FT 18020KT

Čas: 05:31 (04:31 UTC)


TAF: chybějící

Stav a předpovědi počasí z více než 4 000 letišť (zprávy METAR a TAF).

Červené a žluté tečky na mapě představují dostupné meteorologické stanice.

Když kurzor umístíte na tečku, zobrazí se název stanice.

Pak kliknutím zobrazíte stav a předpověď počasí.

Chcete-li změnit mapu, kliknutím na zelené tlačítko se znaménkem +mapu přiblížíte, kliknutím na zelené tlačítko se znaménkem – mapu oddálíte a kliknutím na zelené šipky přejdete na sousední mapy.


METAR-TAF: